ENGMENOV

Guest
Details From ENGM - Oslo Gardermoen
To ENOV - Orsta-Volda Hovden
Flight Number -
Tags generated
Created
Modified
Stats Distance 190 nm / 351 km
Max Altitude 24,500 ft / 7,468 m
Waypoints 4
Social Downloads 1
Likes 0
Share VATSIM

Download

Looking for another format? Having issues loading an existing format? Contact us
Advertisement - Login to hide

Notes

Basic altitude profile: - Ascent Rate: 2500ft/min - Ascent Speed: 250kts - Cruise Altitude: 17000ft - Cruise Speed: 420kts - Descent Rate: 1500ft/min - Descent Speed: 250kts Options: - Use NATs: yes - Use PACOTS: yes - Use low airways: yes - Use high airways: yes

Route

ENGM OSVIG UL997 TUVIG ENOV

ID Type Via Altitude Latitude Longitude Leg Dist Tot Dist Heading (true) Name
O ENGM APT - 0 ft / 0 m 60.19451˚ 11.09900˚ - 0 nm - Oslo Gardermoen
OSVIG FIX - 24,000 ft / 7,315 m 61.07444˚ 9.39889˚ 72 nm 72 nm 317° / 316° -
TUVIG FIX UL997 (AWY-HI) 24,500 ft / 7,468 m 61.74639˚ 7.93222˚ 58 nm 131 nm 314° / 313° -
O ENOV APT - 0 ft / 0 m 62.18000˚ 6.07361˚ 58 nm 189 nm 297° / 296° Orsta-Volda Hovden

Altitude Profile

Advertisement - Login to hide

Weather


0- 5 10 15 20 25 30 35+ Temperature / ° C

Clouds and Precipitation
Forecast for 2018-05-22 06:00 UTC. Updated 3 hours ago

Ground ~20,000 ft ~40,000 ft Winds

ENGM

Details ICAO ENGM (OSL)
Name Oslo Gardermoen
Region Norway
Timezone Europe/Oslo (UTC+2.0)
Stats Elevation 681 ft / 208 m (AMSL)
Location 60.194507° 11.098998°
Runways 2
Magnetic Variation 3.459° E

METAR

ENGM 220750Z VRB02KT CAVOK 14/05 Q1020 NOSIG

Decode

TAF

TAF ENGM 220500Z 2206/2306 VRB05KT CAVOK BECMG 2218/2221 01010KT

Decode

Departure Runways

ID Width Length Bearing (true) Bearing (mag) Surface Threshold Offset Overrun Length
01L 148 ft / 45 m 12,144 ft / 3,702 m 15.89° 12.43° Concrete 0 ft / 0 m 499 ft / 152 m
01R 148 ft / 45 m 10,014 ft / 3,052 m 15.89° 12.43° Concrete 0 ft / 0 m 499 ft / 152 m
19L 148 ft / 45 m 10,014 ft / 3,052 m 195.91° 192.45° Concrete 0 ft / 0 m 466 ft / 142 m
19R 148 ft / 45 m 12,144 ft / 3,702 m 195.91° 192.45° Concrete 0 ft / 0 m 482 ft / 147 m

ENOV

Details ICAO ENOV (HOV)
Name Orsta-Volda Hovden
Region Norway
Timezone Europe/Oslo (UTC+2.0)
Stats Elevation 243 ft / 74 m (AMSL)
Location 62.179996° 6.073612°
Runways 1
Magnetic Variation 1.238° E

METAR

ENOV 220750Z VRB02KT 9999 BKN022 11/07 Q1024 RMK WIND 2175FT VRB02KT

Decode

TAF

Not found

Destination Runways

ID Width Length Bearing (true) Bearing (mag) Surface Threshold Offset Overrun Length
07 98 ft / 30 m 2,843 ft / 866 m 59.99° 58.75° Asphalt 98 ft / 30 m 0 ft / 0 m
25 98 ft / 30 m 2,843 ft / 866 m 240.01° 238.77° Asphalt 118 ft / 36 m 0 ft / 0 m

Approach Navaids

Runway Type Ident Frequency Range Bearing (true) Bearing (mag) Slope Elevation
07 Localiser HN 111.50 MHz 20 nm / 37 km 121.00° 119.76° - 243 ft / 74 m (AMSL)
07 DME HN 111.50 MHz 25 nm / 46 km - - - 243 ft / 74 m (AMSL)

Popular Alternatives